createdAt,value
2019-05-03T00:01:21.822Z,98203.80
2019-05-03T00:03:51.884Z,98199.64
2019-05-03T00:06:23.354Z,98199.57
2019-05-03T00:08:55.929Z,98202.64
2019-05-03T00:11:25.022Z,98197.97
2019-05-03T00:13:56.398Z,98198.45
2019-05-03T00:16:32.541Z,98205.41
2019-05-03T00:19:03.244Z,98199.78
2019-05-03T00:21:32.737Z,98199.78
2019-05-03T00:24:02.981Z,98200.69
2019-05-03T00:26:31.968Z,98192.88
2019-05-03T00:29:02.216Z,98195.61
2019-05-03T00:31:31.892Z,98189.76
2019-05-03T00:34:06.548Z,98204.18
2019-05-03T00:36:55.292Z,98194.25
2019-05-03T00:39:39.022Z,98194.25
2019-05-03T00:42:08.138Z,98191.78
2019-05-03T00:44:37.006Z,98187.34
2019-05-03T00:47:05.954Z,98194.58
2019-05-03T00:49:34.944Z,98188.46
2019-05-03T00:52:04.032Z,98194.58
2019-05-03T00:54:32.895Z,98187.60
2019-05-03T00:57:02.735Z,98184.09
2019-05-03T00:59:32.673Z,98183.00
2019-05-03T01:02:02.681Z,98177.38
2019-05-03T01:04:33.665Z,98182.64
2019-05-03T01:07:02.574Z,98182.38
2019-05-03T01:09:31.807Z,98170.94
2019-05-03T01:12:01.930Z,98170.94
2019-05-03T01:14:31.787Z,98179.92
2019-05-03T01:17:02.605Z,98178.83
2019-05-03T01:19:32.537Z,98173.53
2019-05-03T01:22:01.953Z,98173.88
2019-05-03T01:24:32.250Z,98177.70
2019-05-03T01:27:02.591Z,98175.27
2019-05-03T01:29:32.284Z,98173.00
2019-05-03T01:32:02.515Z,98173.00
2019-05-03T01:34:37.038Z,98186.65
2019-05-03T01:37:06.019Z,98181.63
2019-05-03T01:39:34.954Z,98193.54
2019-05-03T01:42:03.997Z,98180.19
2019-05-03T01:44:32.985Z,98186.35
2019-05-03T01:47:04.672Z,98186.40
2019-05-03T01:49:42.568Z,98184.10
2019-05-03T01:52:33.581Z,98185.52
2019-05-03T01:55:03.295Z,98186.66
2019-05-03T01:57:32.530Z,98186.66
2019-05-03T02:00:02.827Z,98183.58
2019-05-03T02:03:01.556Z,98184.98
2019-05-03T02:05:45.139Z,98182.72
2019-05-03T02:08:14.096Z,98182.72
2019-05-03T02:10:44.078Z,98184.96
2019-05-03T02:13:13.046Z,98185.80
2019-05-03T02:15:42.301Z,98182.20
2019-05-03T02:18:14.887Z,98183.88
2019-05-03T02:20:42.401Z,98181.61
2019-05-03T02:23:11.894Z,98186.67
2019-05-03T02:25:41.920Z,98188.64
2019-05-03T02:28:12.649Z,98189.47
2019-05-03T02:30:44.001Z,98182.73
2019-05-03T02:33:13.453Z,98196.36
2019-05-03T02:35:43.014Z,98196.36
2019-05-03T02:38:13.494Z,98189.17
2019-05-03T02:40:43.097Z,98184.39
2019-05-03T02:43:21.331Z,98190.70
2019-05-03T02:46:10.554Z,98181.32
2019-05-03T02:49:07.818Z,98188.76
2019-05-03T02:51:36.960Z,98187.22
2019-05-03T02:54:06.086Z,98188.30
2019-05-03T02:56:35.739Z,98188.77
2019-05-03T02:59:06.141Z,98190.32
2019-05-03T03:01:35.998Z,98203.70
2019-05-03T03:04:05.849Z,98195.47
2019-05-03T03:06:36.946Z,98196.65
2019-05-03T03:09:07.047Z,98197.50
2019-05-03T03:11:39.025Z,98190.86
2019-05-03T03:14:12.416Z,98192.46
2019-05-03T03:16:48.126Z,98196.34
2019-05-03T03:19:19.954Z,98192.45
2019-05-03T03:21:51.906Z,98196.89
2019-05-03T03:24:25.988Z,98197.48
2019-05-03T03:26:58.359Z,98197.75
2019-05-03T03:29:28.576Z,98198.26
2019-05-03T03:32:30.360Z,98202.79
2019-05-03T03:35:20.846Z,98202.79
2019-05-03T03:37:50.142Z,98202.61
2019-05-03T03:40:20.527Z,98202.67
2019-05-03T03:42:52.574Z,98204.87
2019-05-03T03:45:22.172Z,98201.09
2019-05-03T03:47:59.108Z,98201.09
2019-05-03T03:50:35.899Z,98199.89
2019-05-03T03:53:10.586Z,98201.98
2019-05-03T03:55:39.912Z,98204.33
2019-05-03T03:58:09.400Z,98204.33
2019-05-03T04:00:38.917Z,98208.28
2019-05-03T04:03:08.723Z,98206.98
2019-05-03T04:05:37.932Z,98212.55
2019-05-03T04:08:07.305Z,98217.66
2019-05-03T04:10:36.586Z,98216.25
2019-05-03T04:13:08.548Z,98224.02
2019-05-03T04:15:56.459Z,98226.67
2019-05-03T04:18:40.488Z,98226.67
2019-05-03T04:21:09.350Z,98234.42
2019-05-03T04:23:39.774Z,98234.42
2019-05-03T04:26:10.105Z,98242.92
2019-05-03T04:28:39.924Z,98237.47
2019-05-03T04:31:09.053Z,98237.67
2019-05-03T04:33:37.976Z,98240.96
2019-05-03T04:36:07.077Z,98244.23
2019-05-03T04:38:37.427Z,98250.72
2019-05-03T04:41:06.955Z,98247.25
2019-05-03T04:43:35.958Z,98251.90
2019-05-03T04:46:09.684Z,98247.56
2019-05-03T04:48:38.731Z,98256.52
2019-05-03T04:51:06.843Z,98252.17
2019-05-03T04:53:37.667Z,98258.35
2019-05-03T04:56:06.568Z,98253.44
2019-05-03T04:58:36.474Z,98261.61
2019-05-03T05:01:06.582Z,98251.92
2019-05-03T05:03:36.127Z,98257.30
2019-05-03T05:06:06.317Z,98264.42
2019-05-03T05:08:35.997Z,98270.36
2019-05-03T05:11:06.747Z,98270.36
2019-05-03T05:13:36.545Z,98275.94
2019-05-03T05:16:06.283Z,98270.62
2019-05-03T05:18:45.531Z,98278.48
2019-05-03T05:21:17.719Z,98278.44
2019-05-03T05:24:05.274Z,98273.95
2019-05-03T05:26:59.849Z,98282.05
2019-05-03T05:29:30.453Z,98285.95
2019-05-03T05:31:59.387Z,98289.27
2019-05-03T05:34:28.465Z,98293.25
2019-05-03T05:36:57.398Z,98295.73
2019-05-03T05:39:26.387Z,98292.03
2019-05-03T05:41:55.561Z,98294.91
2019-05-03T05:44:25.053Z,98299.98
2019-05-03T05:47:34.413Z,98299.98
2019-05-03T05:50:34.621Z,98305.03
2019-05-03T05:53:04.835Z,98317.87
2019-05-03T05:55:54.963Z,98317.87
2019-05-03T05:58:37.755Z,98321.73
2019-05-03T06:01:14.582Z,98321.88
2019-05-03T06:03:44.776Z,98322.93
2019-05-03T06:06:19.863Z,98324.03
2019-05-03T06:08:55.939Z,98330.20
2019-05-03T06:11:46.008Z,98335.88
2019-05-03T06:14:38.630Z,98351.91
2019-05-03T06:17:14.670Z,98361.05
2019-05-03T06:19:51.632Z,98361.05
2019-05-03T06:22:28.752Z,98359.81
2019-05-03T06:25:06.386Z,98359.81
2019-05-03T06:27:38.290Z,98365.39
2019-05-03T06:30:27.483Z,98371.83
2019-05-03T06:32:56.503Z,98374.27
2019-05-03T06:35:25.700Z,98375.32
2019-05-03T06:37:54.625Z,98383.95
2019-05-03T06:40:25.279Z,98378.75
2019-05-03T06:43:08.219Z,98387.55
2019-05-03T06:45:26.850Z,98386.46
2019-05-03T06:47:56.291Z,98398.88
2019-05-03T06:50:28.977Z,98400.11
2019-05-03T06:52:59.840Z,98397.27
2019-05-03T06:55:27.983Z,98404.17
2019-05-03T06:58:30.372Z,98403.91
2019-05-03T07:01:26.787Z,98400.36
2019-05-03T07:04:01.573Z,98404.25
2019-05-03T07:06:50.623Z,98407.42
2019-05-03T07:09:44.709Z,98402.88
2019-05-03T07:12:14.837Z,98395.42
2019-05-03T07:14:45.032Z,98395.42
2019-05-03T07:17:14.487Z,98392.70
2019-05-03T07:19:45.781Z,98398.40
2019-05-03T07:22:15.362Z,98402.45
2019-05-03T07:24:45.546Z,98401.66
2019-05-03T07:27:15.806Z,98406.69
2019-05-03T07:29:45.466Z,98422.85
2019-05-03T07:32:17.634Z,98424.95
2019-05-03T07:34:46.580Z,98425.83
2019-05-03T07:37:15.601Z,98429.06
2019-05-03T07:39:45.311Z,98417.87
2019-05-03T07:42:15.678Z,98417.87
2019-05-03T07:44:44.956Z,98425.30
2019-05-03T07:49:30.065Z,98428.42
2019-05-03T07:51:59.431Z,98432.47
2019-05-03T07:54:30.582Z,98431.93
2019-05-03T07:57:05.159Z,98434.53
2019-05-03T07:59:35.554Z,98434.53
2019-05-03T08:02:05.789Z,98432.57
2019-05-03T08:04:35.904Z,98434.33
2019-05-03T08:07:05.716Z,98438.88
2019-05-03T08:09:35.140Z,98435.17
2019-05-03T08:12:05.196Z,98439.37
2019-05-03T08:14:35.661Z,98439.30
2019-05-03T08:17:05.252Z,98429.23
2019-05-03T08:19:35.718Z,98434.77
2019-05-03T08:22:05.445Z,98425.92
2019-05-03T08:24:34.743Z,98429.07
2019-05-03T08:27:04.992Z,98424.82
2019-05-03T08:29:35.199Z,98430.91
2019-05-03T08:32:24.569Z,98424.47
2019-05-03T08:35:12.646Z,98424.47
2019-05-03T08:37:49.995Z,98435.36
2019-05-03T08:40:19.930Z,98436.28
2019-05-03T08:42:48.978Z,98431.13
2019-05-03T08:45:18.014Z,98437.64
2019-05-03T08:47:47.453Z,98439.36
2019-05-03T08:50:21.375Z,98445.59
2019-05-03T08:52:47.578Z,98437.48
2019-05-03T08:55:16.537Z,98443.01
2019-05-03T08:57:45.584Z,98437.36
2019-05-03T09:00:16.991Z,98443.25
2019-05-03T09:02:46.479Z,98443.25
2019-05-03T09:05:18.526Z,98442.53
2019-05-03T09:07:50.698Z,98436.55
2019-05-03T09:10:31.753Z,98443.45
2019-05-03T09:13:06.558Z,98443.45
2019-05-03T09:15:36.323Z,98448.36
2019-05-03T09:18:35.960Z,98450.58
2019-05-03T09:21:05.705Z,98447.13
2019-05-03T09:24:34.998Z,98450.62
2019-05-03T09:27:05.485Z,98450.42
2019-05-03T09:30:38.643Z,98454.46
2019-05-03T09:34:35.120Z,98449.27
2019-05-03T09:37:06.315Z,98452.59
2019-05-03T09:39:40.655Z,98457.27
2019-05-03T09:42:09.116Z,98459.05
2019-05-03T09:44:40.154Z,98466.48
2019-05-03T09:53:55.475Z,98452.56
2019-05-03T10:05:46.996Z,98432.83
2019-05-03T10:08:05.267Z,98435.91
2019-05-03T10:19:54.603Z,98449.48
2019-05-03T10:22:47.730Z,98449.48
2019-05-03T10:26:16.074Z,98445.02
2019-05-03T10:42:08.500Z,98434.36
2019-05-03T10:54:07.518Z,98435.89
2019-05-03T10:57:35.956Z,98426.73
2019-05-03T11:11:01.521Z,98413.25
2019-05-03T11:14:15.061Z,98413.25
2019-05-03T11:22:25.432Z,98406.95
2019-05-03T11:26:00.050Z,98406.95
2019-05-03T11:33:45.675Z,98419.59
2019-05-03T11:43:18.617Z,98400.52
2019-05-03T11:46:51.250Z,98392.73
2019-05-03T11:51:05.567Z,98391.23
2019-05-03T11:54:15.593Z,98391.58
2019-05-03T11:57:31.101Z,98391.58
2019-05-03T12:01:12.928Z,98398.23
2019-05-03T12:04:42.873Z,98400.23
2019-05-03T12:07:18.484Z,98394.21
2019-05-03T12:09:47.723Z,98389.61
2019-05-03T12:12:29.454Z,98393.99
2019-05-03T12:14:59.541Z,98382.29
2019-05-03T12:17:34.923Z,98387.28
2019-05-03T12:20:07.748Z,98387.97
2019-05-03T12:22:38.462Z,98390.41
2019-05-03T12:25:10.495Z,98393.11
2019-05-03T12:27:39.691Z,98393.30
2019-05-03T12:30:08.353Z,98387.08
2019-05-03T12:32:37.390Z,98385.95
2019-05-03T12:35:06.914Z,98375.04
2019-05-03T12:37:35.965Z,98375.04
2019-05-03T12:40:05.506Z,98373.40
2019-05-03T12:42:35.439Z,98363.52
2019-05-03T12:45:06.726Z,98363.59
2019-05-03T12:47:36.250Z,98355.57
2019-05-03T12:50:06.564Z,98357.50
2019-05-03T12:52:49.573Z,98349.73
2019-05-03T12:55:07.433Z,98349.73
2019-05-03T12:57:36.612Z,98348.97
2019-05-03T13:00:26.119Z,98321.01
2019-05-03T13:02:59.421Z,98321.01
2019-05-03T13:05:30.145Z,98333.96
2019-05-03T13:08:26.444Z,98329.44
2019-05-03T13:10:55.754Z,98324.97
2019-05-03T13:13:24.969Z,98322.63
2019-05-03T13:15:55.064Z,98322.55
2019-05-03T13:18:25.229Z,98313.94
2019-05-03T13:20:55.854Z,98322.50
2019-05-03T13:23:25.483Z,98308.66
2019-05-03T13:25:55.581Z,98302.44
2019-05-03T13:28:25.429Z,98306.53
2019-05-03T13:31:25.127Z,98302.73
2019-05-03T13:33:54.939Z,98302.73
2019-05-03T13:36:25.271Z,98289.70
2019-05-03T13:39:09.847Z,98298.20
2019-05-03T13:41:26.017Z,98298.20
2019-05-03T13:44:00.961Z,98289.70
2019-05-03T13:46:30.717Z,98288.61
2019-05-03T13:49:00.554Z,98280.33
2019-05-03T13:51:30.114Z,98280.91
2019-05-03T13:53:59.582Z,98281.97
2019-05-03T13:56:29.669Z,98271.43
2019-05-03T13:58:57.986Z,98271.43
2019-05-03T14:01:27.574Z,98268.22
2019-05-03T14:03:57.622Z,98264.06
2019-05-03T14:06:27.071Z,98265.06
2019-05-03T14:08:56.284Z,98269.19
2019-05-03T14:11:25.592Z,98260.23
2019-05-03T14:13:55.185Z,98257.01
2019-05-03T14:16:24.445Z,98263.56
2019-05-03T14:18:56.940Z,98256.23
2019-05-03T14:21:34.466Z,98258.06
2019-05-03T14:24:09.835Z,98260.06
2019-05-03T14:26:40.943Z,98264.77
2019-05-03T14:29:10.471Z,98271.05
2019-05-03T14:31:39.667Z,98268.00
2019-05-03T14:34:08.599Z,98253.64
2019-05-03T14:36:37.565Z,98255.58
2019-05-03T14:39:10.098Z,98255.58
2019-05-03T14:41:39.442Z,98251.09
2019-05-03T14:44:08.538Z,98249.48
2019-05-03T14:46:38.526Z,98250.97
2019-05-03T14:49:07.785Z,98235.47
2019-05-03T14:51:37.000Z,98235.47
2019-05-03T14:54:07.148Z,98239.94
2019-05-03T14:56:45.659Z,98242.27
2019-05-03T14:59:35.679Z,98247.94
2019-05-03T15:02:15.396Z,98242.08
2019-05-03T15:04:45.878Z,98235.63
2019-05-03T15:07:15.768Z,98235.63
2019-05-03T15:09:47.473Z,98240.98
2019-05-03T15:12:19.268Z,98246.80
2019-05-03T15:14:50.356Z,98244.32
2019-05-03T15:17:19.433Z,98249.13
2019-05-03T15:19:50.469Z,98247.95
2019-05-03T15:22:22.154Z,98246.16
2019-05-03T15:24:54.958Z,98243.47
2019-05-03T15:27:25.715Z,98243.47
2019-05-03T15:29:58.058Z,98250.55
2019-05-03T15:32:30.889Z,98252.03
2019-05-03T15:35:00.768Z,98245.69
2019-05-03T15:37:31.825Z,98253.35
2019-05-03T15:40:15.641Z,98256.45
2019-05-03T15:42:54.575Z,98258.84
2019-05-03T15:45:58.736Z,98260.34
2019-05-03T15:48:38.412Z,98258.23
2019-05-03T15:51:09.964Z,98248.63
2019-05-03T15:53:41.235Z,98254.91
2019-05-03T15:56:14.676Z,98254.69
2019-05-03T15:58:46.945Z,98266.11
2019-05-03T16:01:19.330Z,98254.97
2019-05-03T16:03:55.612Z,98251.56
2019-05-03T16:06:27.818Z,98258.30
2019-05-03T16:09:00.663Z,98260.80
2019-05-03T16:11:32.227Z,98259.67
2019-05-03T16:14:06.009Z,98256.28
2019-05-03T16:16:37.753Z,98254.49
2019-05-03T16:19:07.748Z,98252.50
2019-05-03T16:21:36.839Z,98256.05
2019-05-03T16:24:11.580Z,98247.17
2019-05-03T16:27:02.018Z,98255.22
2019-05-03T16:29:41.884Z,98257.09
2019-05-03T16:32:12.450Z,98254.48
2019-05-03T16:34:40.997Z,98258.33
2019-05-03T16:37:12.321Z,98255.73
2019-05-03T16:39:41.967Z,98250.28
2019-05-03T16:42:18.480Z,98254.09
2019-05-03T16:44:50.636Z,98253.44
2019-05-03T16:47:20.427Z,98254.56
2019-05-03T16:49:51.534Z,98257.06
2019-05-03T16:52:25.660Z,98264.56
2019-05-03T16:55:03.127Z,98264.56
2019-05-03T16:57:35.380Z,98268.97
2019-05-03T17:00:06.989Z,98270.66
2019-05-03T17:02:39.522Z,98270.66
2019-05-03T17:05:24.913Z,98272.75
2019-05-03T17:08:14.782Z,98272.75
2019-05-03T17:10:49.575Z,98266.97
2019-05-03T17:13:20.508Z,98257.39
2019-05-03T17:15:52.324Z,98257.39
2019-05-03T17:18:21.977Z,98272.00
2019-05-03T17:21:04.531Z,98265.34
2019-05-03T17:23:35.571Z,98272.55
2019-05-03T17:26:05.524Z,98279.91
2019-05-03T17:28:35.737Z,98264.52
2019-05-03T17:31:07.312Z,98264.52
2019-05-03T17:33:36.587Z,98269.62
2019-05-03T17:36:13.073Z,98271.97
2019-05-03T17:38:57.557Z,98271.97
2019-05-03T17:41:50.493Z,98274.05
2019-05-03T17:44:27.308Z,98280.43
2019-05-03T17:47:04.312Z,98275.50
2019-05-03T17:49:34.841Z,98281.60
2019-05-03T17:52:24.907Z,98281.60
2019-05-03T17:55:15.765Z,98275.30
2019-05-03T17:57:57.036Z,98281.14
2019-05-03T18:00:44.478Z,98279.02
2019-05-03T18:03:14.601Z,98268.74
2019-05-03T18:05:55.498Z,98273.25
2019-05-03T18:08:55.127Z,98264.16
2019-05-03T18:11:28.783Z,98264.16
2019-05-03T18:13:56.888Z,98272.55
2019-05-03T18:16:26.072Z,98272.57
2019-05-03T18:18:54.978Z,98273.97
2019-05-03T18:21:24.456Z,98275.37
2019-05-03T18:23:54.535Z,98273.97
2019-05-03T18:26:24.796Z,98273.97
2019-05-03T18:28:55.325Z,98287.91
2019-05-03T18:31:25.106Z,98284.88
2019-05-03T18:33:55.418Z,98289.88
2019-05-03T18:36:25.305Z,98287.09
2019-05-03T18:38:55.290Z,98286.27
2019-05-03T18:41:25.427Z,98276.50
2019-05-03T18:44:14.645Z,98276.50
2019-05-03T18:46:47.768Z,98291.27
2019-05-03T18:49:16.779Z,98296.28
2019-05-03T18:51:45.396Z,98294.33
2019-05-03T18:54:15.629Z,98302.13
2019-05-03T18:56:44.133Z,98299.55
2019-05-03T18:59:14.521Z,98307.86
2019-05-03T19:01:45.174Z,98312.92
2019-05-03T19:04:34.271Z,98312.92
2019-05-03T19:07:04.368Z,98319.97
2019-05-03T19:09:40.463Z,98323.33
2019-05-03T19:12:17.144Z,98324.14
2019-05-03T19:14:46.138Z,98327.33
2019-05-03T19:17:35.434Z,98327.83
2019-05-03T19:20:09.317Z,98317.91
2019-05-03T19:22:38.784Z,98317.64
2019-05-03T19:25:07.948Z,98311.84
2019-05-03T19:27:37.100Z,98323.33
2019-05-03T19:30:07.632Z,98318.50
2019-05-03T19:32:36.053Z,98326.34
2019-05-03T19:35:06.980Z,98334.06
2019-05-03T19:37:36.449Z,98328.70
2019-05-03T19:40:06.658Z,98335.97
2019-05-03T19:42:38.513Z,98330.50
2019-05-03T19:45:08.414Z,98320.84
2019-05-03T19:47:37.749Z,98320.84
2019-05-03T19:50:06.199Z,98330.25
2019-05-03T19:54:25.486Z,98331.00
2019-05-03T19:56:55.704Z,98330.23
2019-05-03T19:59:43.921Z,98333.41
2019-05-03T20:02:41.528Z,98337.02
2019-05-03T20:05:34.507Z,98339.23
2019-05-03T20:08:24.521Z,98332.98
2019-05-03T20:11:17.626Z,98332.98
2019-05-03T20:13:47.538Z,98335.94
2019-05-03T20:16:16.804Z,98335.94
2019-05-03T20:18:46.536Z,98327.41
2019-05-03T20:21:15.567Z,98330.05
2019-05-03T20:23:47.002Z,98330.05
2019-05-03T20:26:15.349Z,98322.12
2019-05-03T20:28:45.122Z,98322.12
2019-05-03T20:31:14.528Z,98323.59
2019-05-03T20:33:45.570Z,98329.52
2019-05-03T20:36:14.573Z,98313.73
2019-05-03T20:38:44.581Z,98324.87
2019-05-03T20:41:14.832Z,98329.58
2019-05-03T20:44:15.844Z,98325.34
2019-05-03T20:46:58.453Z,98323.20
2019-05-03T20:49:27.368Z,98322.29
2019-05-03T20:51:56.415Z,98312.95
2019-05-03T20:54:27.879Z,98316.84
2019-05-03T20:56:58.300Z,98318.06
2019-05-03T20:59:27.573Z,98308.34
2019-05-03T21:01:56.941Z,98305.09
2019-05-03T21:04:26.326Z,98305.09
2019-05-03T21:06:55.577Z,98312.44
2019-05-03T21:09:24.114Z,98318.81
2019-05-03T21:11:55.057Z,98319.32
2019-05-03T21:14:24.569Z,98317.45
2019-05-03T21:17:27.685Z,98321.42
2019-05-03T21:20:01.400Z,98320.92
2019-05-03T21:22:37.299Z,98320.92
2019-05-03T21:25:12.476Z,98320.12
2019-05-03T21:27:42.183Z,98319.25
2019-05-03T21:30:11.298Z,98319.84
2019-05-03T21:32:40.324Z,98319.52
2019-05-03T21:35:10.387Z,98318.36
2019-05-03T21:37:39.654Z,98314.78
2019-05-03T21:40:08.901Z,98299.30
2019-05-03T21:42:38.165Z,98299.30
2019-05-03T21:45:10.545Z,98306.55
2019-05-03T21:47:48.540Z,98312.30
2019-05-03T21:50:19.315Z,98304.91
2019-05-03T21:52:48.573Z,98304.91
2019-05-03T21:55:20.149Z,98306.70
2019-05-03T21:57:49.742Z,98307.07
2019-05-03T22:00:20.018Z,98316.73
2019-05-03T22:02:51.722Z,98308.35
2019-05-03T22:05:21.649Z,98305.43
2019-05-03T22:07:58.687Z,98305.43
2019-05-03T22:10:30.736Z,98305.43
2019-05-03T22:13:00.565Z,98303.46
2019-05-03T22:15:40.903Z,98296.95
2019-05-03T22:18:21.480Z,98296.95
2019-05-03T22:21:15.940Z,98294.98
2019-05-03T22:24:04.443Z,98301.75
2019-05-03T22:26:55.560Z,98290.03
2019-05-03T22:29:25.419Z,98291.72
2019-05-03T22:31:54.990Z,98291.72
2019-05-03T22:34:25.805Z,98287.55
2019-05-03T22:36:55.030Z,98283.19
2019-05-03T22:39:24.986Z,98285.34
2019-05-03T22:41:54.011Z,98277.14
2019-05-03T22:45:23.878Z,98262.65
2019-05-03T22:47:54.863Z,98272.29
2019-05-03T22:50:25.533Z,98272.42
2019-05-03T22:52:54.971Z,98253.16
2019-05-03T22:55:24.724Z,98253.16
2019-05-03T22:57:54.621Z,98255.45
2019-05-03T23:00:25.165Z,98252.36
2019-05-03T23:02:54.806Z,98246.70
2019-05-03T23:05:24.065Z,98244.22
2019-05-03T23:07:55.214Z,98244.28
2019-05-03T23:10:25.734Z,98231.31
2019-05-03T23:12:55.115Z,98236.67
2019-05-03T23:15:24.393Z,98230.66
2019-05-03T23:17:54.519Z,98229.88
2019-05-03T23:20:34.346Z,98223.42
2019-05-03T23:23:05.404Z,98228.03
2019-05-03T23:25:35.743Z,98227.44
2019-05-03T23:28:04.026Z,98227.44
2019-05-03T23:30:33.639Z,98215.95
2019-05-03T23:33:02.588Z,98216.55
2019-05-03T23:35:31.588Z,98216.55
2019-05-03T23:38:00.659Z,98207.31
2019-05-03T23:40:29.634Z,98207.31
2019-05-03T23:42:58.482Z,98205.84
2019-05-03T23:45:27.750Z,98197.48
2019-05-03T23:47:56.950Z,98200.98
2019-05-03T23:50:26.038Z,98197.81
2019-05-03T23:52:55.360Z,98195.87
2019-05-03T23:55:41.979Z,98192.27
2019-05-03T23:58:11.083Z,98184.84
